24th November 2019 | Maryborough, Victoria, Australia

Energy Breakthrough (2019)

HPV Primary - Practice: Mixed

Name School Category (Pos) Overall Pos Laps Fastest Average Slowest
AVOCA CIRCUIT (#17) Avoca Primary School A1 (1) 29 26 00:02:02 00:03:10 00:04:52
COSMOS CONQUERORS (#35) Kingswood Primary School A2 - Penalty (1) 38 27 00:02:05 00:03:15 00:05:29
NITRO (#73) Derinya Primary School A2 (1) 1 28 00:01:40 00:02:44 00:07:59
WIMMERA VISPER (#22) Horsham West and Haven Primary School A2 (2) 2 36 00:01:41 00:02:27 00:04:40
GONZALES (#6) Talbot Primary School A1 (2) 40 28 00:02:06 00:03:07 00:09:59
OAK TREE RACING 1 (#37) Avenel Primary School A1 (3) 43 33 00:02:07 00:02:35 00:05:10
ECORUSH (#7) White Hills Primary School A2 (3) 3 29 00:01:43 00:03:01 00:10:12
OAK TREE RACING 2 (#38) Avenel Primary School A1 (4) 44 30 00:02:09 00:02:45 00:05:29
DOCTOR DOCTOR (#86) Marist College Bendigo A2 (4) 4 30 00:01:45 00:02:54 00:04:26
DYNAMITE (#46) Clunes Primary School A1 (5) 49 24 00:02:10 00:03:33 00:05:52
GHOST (#79) Golden Square Primary School A2 (5) 5 24 00:01:47 00:03:21 00:12:36
SPEEDY (#5) Talbot Primary School A1 (6) 56 26 00:02:13 00:03:20 00:08:24
WILLMOTT PARK WARRIORS (#25) Willmott Park Primary School A2 (6) 6 21 00:01:48 00:04:08 00:35:39
SMINGLEWOOD (#85) St Mary'S Primary School A1 (7) 59 5 00:02:14 00:02:25 00:02:34
PHOENIX (#381) Jells Park Primary School A2 (7) 7 10 00:01:48 00:06:41 00:45:33
TNT (#65) Lockwood Primary School A1 (8) 73 25 00:02:20 00:03:21 00:05:57
MECLICIOUS SISTA (#1) Maryborough Education Centre A2 (8) 8 38 00:01:49 00:02:20 00:03:41
GRAND SLAM (#13) Mornington Primary School A2 (9) 9 29 00:01:49 00:02:59 00:04:45
GOLD LIGHTNING (#59) Garfield Primary A1 (9) 84 20 00:02:33 00:04:08 00:07:47
DYNAMITE (#64) Lockwood Primary School A1 (10) 88 17 00:02:53 00:04:48 00:07:53
LAURIMAR GRIFFINS (#28) Laurimar Primary School A2 (10) 10 30 00:01:50 00:02:45 00:05:01
BLITZ (#74) Derinya Primary School A2 (11) 11 32 00:01:50 00:02:34 00:04:31
FLAMINGOS (#373) Derinya Primary School A2 (12) 12 30 00:01:52 00:02:40 00:04:48
TORPECO (#8) White Hills Primary School A2 (13) 13 29 00:01:53 00:02:43 00:08:23
SHAZZAM (#81) Jells Park Primary School A2 (14) 14 30 00:01:53 00:02:52 00:09:11
MERCURY (#15) Carisbrook Primary School A2 (15) 15 29 00:01:54 00:02:55 00:05:04
TOOT TOOT (#60) Tootgarook Primary School A2 (16) 16 35 00:01:54 00:02:22 00:04:31
GT (#14) Mornington Primary School A2 (17) 17 24 00:01:54 00:03:21 00:07:48
BEWARE (#71) Bonbeach Primary School A2 (18) 18 34 00:01:54 00:02:31 00:05:35
JUNIOR (#16) Carisbrook Primary School A2 (19) 19 26 00:01:55 00:03:14 00:06:32
PEARCEDALE PIRANHAS 2.0 (#34) Pearcedale Primary School A2 (20) 20 33 00:01:56 00:02:38 00:04:23
CRUISIN CREW (#43) Lloyd Street Primary School A2 (21) 21 31 00:01:56 00:02:49 00:05:31
JOHN VALVES (#49) Caledonian Primary School A2 (22) 22 22 00:01:59 00:03:47 00:08:51
THE SPIRIT OF DIAMOND CREEK (#24) Diamond Creek Primary School A2 (23) 23 33 00:02:00 00:02:38 00:05:05
LICKETY SPLIT (#32) Kororoit Creek Primary School A2 (24) 24 27 00:02:00 00:02:59 00:04:48
HAILEYBURY HAILSTORM (#9) Haileybury College A2 (25) 25 28 00:02:00 00:03:01 00:05:23
KENNINGTON GREEN (#67) Kennington Primary School A2 (26) 26 26 00:02:00 00:03:11 00:04:54
FLAMIN (#36) Terang College A2 (27) 27 24 00:02:01 00:03:29 00:06:06
FIRE STARS (#61) Tootgarook Primary School A2 (28) 28 29 00:02:01 00:03:00 00:05:00
CREEKERS (#31) Kororoit Creek Primary School A2 (29) 30 30 00:02:02 00:02:57 00:04:39
WILLMOTT PARK WIZARDS (#26) Willmott Park Primary School A2 (30) 31 29 00:02:03 00:02:55 00:10:36
MECLICIOUS (#2) Maryborough Education Centre A2 (31) 32 32 00:02:03 00:02:46 00:04:33
OSCAR (#44) Berwick Primary School A2 (32) 33 29 00:02:04 00:02:57 00:05:49
VANQUISH (#82) Jells Park Primary School A2 (33) 34 29 00:02:04 00:02:57 00:05:20
KATCHMI JNR (#29) Morwell Park Primary School A2 (34) 35 21 00:02:04 00:04:04 00:10:08
LAURIMAR PHOENIX (#327) Laurimar Primary School A2 (35) 36 29 00:02:05 00:02:49 00:04:17
KILDARE MAY (#88) St. Augustine's Primary School A2 (36) 37 26 00:02:05 00:03:14 00:05:48
PACMAN (#80) Golden Square Primary School A2 (37) 39 22 00:02:06 00:03:21 00:05:03
CWPS WOLVES (#57) Cranbourne West Primary School A2 (38) 41 23 00:02:07 00:03:43 00:09:33
KILDARE BARBARA (#87) St. Augustine's Primary School A2 (39) 42 28 00:02:07 00:03:06 00:05:42
HR ROCKETS - FLAMES (#84) Holy Rosary Primary School White Hills A2 (40) 45 19 00:02:10 00:04:14 00:23:34
PEARCEDALE PIRANHAS (#33) Pearcedale Primary School A2 (41) 46 30 00:02:10 00:02:49 00:04:18
ROAD RUNNER (#41) Dingley Primary School A2 (42) 47 26 00:02:10 00:03:15 00:04:44
THUNDER (#75) Niddrie Primary School A2 (43) 48 24 00:02:10 00:03:24 00:07:07
LIGHTNING (#76) Niddrie Primary School A2 (44) 50 28 00:02:11 00:03:06 00:05:07
CWPS PUPS (#58) Cranbourne West Primary School A2 (45) 51 24 00:02:11 00:03:33 00:06:28
GECKO 1 (#39) Seymour College A2 (46) 52 24 00:02:12 00:03:18 00:05:02
LAURIMAR DRAGONS (#27) Laurimar Primary School A2 (47) 53 26 00:02:12 00:03:11 00:06:04
SPEEDY GONZALES (#42) Dingley Primary School A2 (48) 54 22 00:02:12 00:03:41 00:14:37
BACK OFF (#72) Bonbeach Primary School A2 (49) 55 29 00:02:13 00:02:58 00:04:50
ICE (#4) Buninyong Primary School A2 (50) 57 27 00:02:14 00:03:03 00:05:59
FIRE (#3) Buninyong Primary School A2 (51) 58 26 00:02:14 00:03:08 00:04:44
WIMMERA RAMPAGE (#23) Horsham West and Haven Primary School A2 (52) 60 23 00:02:15 00:02:59 00:04:58
ELMO (#344) Berwick Primary School A2 (53) 61 24 00:02:16 00:03:34 00:06:17
HURRICANE HEIGHTS (#52) Frankston Heights Primary School A2 (54) 62 24 00:02:16 00:03:34 00:06:19
HAILEYS COMET (#10) Haileybury College A2 (55) 63 24 00:02:16 00:03:31 00:05:10
HAILEYBURY HORNETS (#309) Haileybury College A2 (56) 64 26 00:02:17 00:03:17 00:10:40
LEGO MASTERS (#56) Lyndhurst Primary School A2 (57) 65 23 00:02:17 00:03:36 00:06:21
LUCKNOW THUNDER (#54) Lucknow Primary School A2 (58) 66 28 00:02:17 00:03:06 00:05:25
DPS EXPRESS 1 (#20) Delacombe Primary School A2 (59) 67 24 00:02:17 00:03:33 00:07:32
COOKIE (#45) Berwick Primary School A2 (60) 68 25 00:02:17 00:03:27 00:05:29
CARBON ZERO (#19) Pleasant Street Primary School A2 (61) 69 21 00:02:18 00:03:55 00:07:14
KENNINGTON YELLOW (#68) Kennington Primary School A2 (62) 70 26 00:02:19 00:03:13 00:04:24
LUCKNOW LIGHTNING (#53) Lucknow Primary School A2 (63) 71 27 00:02:19 00:03:04 00:04:39
LIGHT SPEED (#70) Mt Eliza Primary School A2 (64) 72 21 00:02:20 00:03:57 00:10:05
CARBON NADA (#18) Pleasant Street Primary School A2 (65) 74 19 00:02:20 00:04:16 00:06:25
BENTON BULLETS (#12) Benton Junior College A2 (66) 75 23 00:02:22 00:03:42 00:08:49
BENTON BANDITS (#11) Benton Junior College A2 (67) 76 26 00:02:23 00:03:17 00:04:41
MASTERCHEF (#55) Lyndhurst Primary School A2 (68) 77 26 00:02:25 00:03:13 00:04:38
BULLETPROOF (#62) Leongatha Primary School A2 (69) 78 19 00:02:26 00:04:20 00:07:09
GECKO 3 (#40) Seymour College A2 (70) 79 21 00:02:28 00:04:10 00:12:04
DPS EXPRESS 2 (#21) Delacombe Primary School A2 (71) 80 22 00:02:29 00:03:50 00:08:33
FURIOUS 8 (#51) Frankston Heights Primary School A2 (72) 81 24 00:02:29 00:03:24 00:05:46
THUNDER (#47) Canadian Lead Primary School A2 (73) 82 16 00:02:31 00:04:18 00:08:48
HR ROCKETS - HORNETS (#83) Holy Rosary Primary School White Hills A2 (74) 83 16 00:02:31 00:04:59 00:14:37
XLR8 (#63) Leongatha Primary School A2 (75) 85 20 00:02:34 00:04:08 00:07:25
PEDDERS SUSPENSION AND BRAKES (#50) Caledonian Primary School A2 (76) 86 20 00:02:41 00:04:01 00:07:40
ZERO GRAVITY (#69) Mt Eliza Primary School A2 (77) 87 22 00:02:50 00:03:53 00:05:56
FLAME THROWER (#30) Morwell Park Primary School A2 (78) 89 16 00:02:57 00:04:53 00:08:55
LIGHTNING (#48) Canadian Lead Primary School A2 (79) 90 12 00:02:58 00:07:04 00:20:17